Gran Canaria > ESTACION METEOROLÓGICA Mogán

DATOS ACTUALES Online

Ultima actulizacion 16 minutos

19.6 ºC

Temperatura

31

Humedad (%)

987.5

Presión (mb)

0

Precipitación (mm)

24.8 N

Viento (Km/h)

DATOS DIARIOS

Temperatura últimas 24 horas (ºC)

Humedad últimas 24 horas (%)

Presión atmosférica últimas 24 horas (mb)

Precipitaciones últimas 23 horas (mm)

Viento últimas 24 horas (Km/h)

Hora Temperatura (°C) ºC Precipitación (mm) mm Presión (mb) mb Humedad (%) % Viento (Km/h) km/h
19 - 09:00 15.4 0.2 988 72 8.3 SO
19 - 10:00 17 0.2 988 69 13.6 SW
19 - 11:00 19.3 0.2 988 49 11.2 NW
19 - 12:00 20.7 0.2 988 39 21.8 W
19 - 13:00 20 0.2 987 35 31.4 W
19 - 14:00 20.6 0.2 986 33 27.8 W
19 - 15:00 20.4 0.2 986 34 30.8 W
19 - 16:00 20.5 0.2 986 33 23.5 W
19 - 17:00 19.7 0.2 986 35 28 NO
19 - 18:00 18.7 0.2 987 39 10.2 SO
19 - 19:00 18.1 0.2 987 42 9.6 SO
19 - 20:00 18.6 0.2 987 41 11.2 SO
19 - 21:00 18.6 0.2 988 42 10.7 S
19 - 22:00 18.8 0.2 988 43 16.8 SW
19 - 23:00 19.6 0.2 988 39 25.6 NW
20 - 00:00 19.1 0 988 41 18.5 N
20 - 01:00 18.8 0 987 43 23.5 NW
20 - 02:00 18.8 0 987 42 24.2 N
20 - 03:00 18.5 0 987 41 23.3 SO
20 - 04:00 18.4 0 986 39 10 W
20 - 05:00 17.6 0 986 39 12.2 SO
20 - 06:00 17.9 0 986 36 13.9 SO
20 - 07:00 17.8 0 987 34 13.9 S
20 - 08:00 18.8 0 987 31 12.9 O
20 - 09:00 19.6 0 988 31 24.8 N
Apalmet utiliza cookies propias y de terceros para mejorar la usabilidad y la experiencia web. Política de cookies.